createdAt,value
2022-10-09T00:01:15.944Z,6.83
2022-10-09T00:03:46.537Z,6.60
2022-10-09T00:06:18.417Z,6.72
2022-10-09T00:08:46.600Z,6.74
2022-10-09T00:11:16.607Z,6.73
2022-10-09T00:13:45.032Z,6.53
2022-10-09T00:16:14.813Z,6.42
2022-10-09T00:18:43.278Z,6.49
2022-10-09T00:21:20.262Z,6.35
2022-10-09T00:23:49.027Z,6.35
2022-10-09T00:26:17.365Z,6.47
2022-10-09T00:28:46.031Z,6.55
2022-10-09T00:31:14.605Z,6.59
2022-10-09T00:33:42.507Z,6.46
2022-10-09T00:36:13.314Z,6.32
2022-10-09T00:38:42.864Z,6.15
2022-10-09T00:41:15.998Z,6.45
2022-10-09T00:43:47.712Z,6.50
2022-10-09T00:46:25.537Z,6.38
2022-10-09T00:49:01.500Z,6.33
2022-10-09T00:51:30.862Z,6.21
2022-10-09T00:54:00.744Z,6.23
2022-10-09T00:56:29.175Z,6.37
2022-10-09T00:58:58.812Z,6.32
2022-10-09T01:01:26.725Z,6.24
2022-10-09T01:03:54.585Z,6.18
2022-10-09T01:06:33.737Z,6.21
2022-10-09T01:09:08.969Z,6.19
2022-10-09T01:11:46.296Z,6.20
2022-10-09T01:14:22.631Z,6.25
2022-10-09T01:16:57.827Z,6.23
2022-10-09T01:19:51.117Z,6.16
2022-10-09T01:22:33.822Z,6.17
2022-10-09T01:25:08.785Z,6.14
2022-10-09T01:27:39.078Z,6.13
2022-10-09T01:30:09.532Z,6.00
2022-10-09T01:32:40.922Z,6.08
2022-10-09T01:35:12.076Z,6.02
2022-10-09T01:37:41.551Z,6.08
2022-10-09T01:40:11.610Z,6.14
2022-10-09T01:42:41.479Z,6.03
2022-10-09T01:45:10.499Z,5.94
2022-10-09T01:47:38.925Z,5.92
2022-10-09T01:50:16.532Z,5.88
2022-10-09T01:52:50.039Z,5.90
2022-10-09T01:55:37.343Z,5.86
2022-10-09T01:58:11.903Z,5.89
2022-10-09T02:00:45.182Z,5.93
2022-10-09T02:03:16.398Z,5.87
2022-10-09T02:05:47.149Z,5.84
2022-10-09T02:08:18.369Z,5.78
2022-10-09T02:10:48.899Z,5.72
2022-10-09T02:13:19.064Z,5.80
2022-10-09T02:15:51.393Z,5.75
2022-10-09T02:18:34.891Z,5.75
2022-10-09T02:21:10.927Z,5.73
2022-10-09T02:23:41.109Z,5.59
2022-10-09T02:26:10.111Z,5.28
2022-10-09T02:28:43.806Z,5.57
2022-10-09T02:31:18.742Z,5.66
2022-10-09T02:33:46.534Z,5.72
2022-10-09T02:36:14.707Z,5.75
2022-10-09T02:38:42.466Z,5.63
2022-10-09T02:41:10.329Z,5.61
2022-10-09T02:43:39.623Z,5.57
2022-10-09T02:46:07.623Z,5.49
2022-10-09T02:48:35.548Z,5.55
2022-10-09T02:51:03.419Z,5.65
2022-10-09T02:53:31.531Z,5.56
2022-10-09T02:55:59.584Z,5.57
2022-10-09T02:58:27.848Z,5.62
2022-10-09T03:00:57.044Z,5.56
2022-10-09T03:03:25.283Z,5.63
2022-10-09T03:06:02.107Z,5.63
2022-10-09T03:08:30.061Z,5.65
2022-10-09T03:10:58.038Z,5.55
2022-10-09T03:13:25.832Z,5.61
2022-10-09T03:15:54.139Z,5.71
2022-10-09T03:18:23.393Z,5.52
2022-10-09T03:20:51.287Z,5.52
2022-10-09T03:23:19.089Z,5.41
2022-10-09T03:25:56.587Z,5.37
2022-10-09T03:28:24.642Z,5.30
2022-10-09T03:30:54.090Z,5.36
2022-10-09T03:33:23.602Z,5.38
2022-10-09T03:35:51.499Z,5.41
2022-10-09T03:38:19.524Z,5.27
2022-10-09T03:40:47.371Z,5.35
2022-10-09T03:43:15.153Z,5.35
2022-10-09T03:45:43.995Z,5.25
2022-10-09T03:48:13.042Z,5.17
2022-10-09T03:50:43.006Z,5.27
2022-10-09T03:53:15.626Z,5.10
2022-10-09T03:55:44.420Z,5.17
2022-10-09T03:58:12.209Z,5.26
2022-10-09T04:00:40.222Z,5.19
2022-10-09T04:03:08.594Z,5.21
2022-10-09T04:05:36.507Z,5.25
2022-10-09T04:08:05.763Z,5.24
2022-10-09T04:10:34.327Z,5.21
2022-10-09T04:13:02.089Z,5.29
2022-10-09T04:15:29.949Z,5.27
2022-10-09T04:17:57.758Z,5.17
2022-10-09T04:20:25.623Z,5.06
2022-10-09T04:22:53.385Z,5.04
2022-10-09T04:25:22.612Z,5.00
2022-10-09T04:27:50.576Z,5.04
2022-10-09T04:30:18.371Z,5.07
2022-10-09T04:32:48.202Z,5.16
2022-10-09T04:35:16.728Z,5.13
2022-10-09T04:37:44.575Z,4.99
2022-10-09T04:40:12.514Z,5.01
2022-10-09T04:42:41.652Z,4.87
2022-10-09T04:45:11.019Z,5.01
2022-10-09T04:47:39.061Z,4.98
2022-10-09T04:50:08.218Z,4.87
2022-10-09T04:52:36.201Z,4.90
2022-10-09T04:55:04.038Z,5.05
2022-10-09T04:57:32.129Z,4.76
2022-10-09T05:00:01.353Z,4.75
2022-10-09T05:02:29.137Z,4.75
2022-10-09T05:04:57.360Z,4.73
2022-10-09T05:07:25.467Z,4.61
2022-10-09T05:09:53.296Z,4.75
2022-10-09T05:12:21.081Z,4.74
2022-10-09T05:14:49.015Z,4.65
2022-10-09T05:17:22.191Z,4.63
2022-10-09T05:19:51.179Z,4.61
2022-10-09T05:22:20.298Z,4.59
2022-10-09T05:24:48.179Z,4.56
2022-10-09T05:27:16.123Z,4.57
2022-10-09T05:29:43.992Z,4.58
2022-10-09T05:32:11.920Z,4.60
2022-10-09T05:34:41.164Z,4.58
2022-10-09T05:37:09.032Z,4.44
2022-10-09T05:39:38.334Z,4.51
2022-10-09T05:42:06.862Z,4.55
2022-10-09T05:44:34.656Z,4.48
2022-10-09T05:47:02.500Z,4.53
2022-10-09T05:49:30.383Z,4.43
2022-10-09T05:51:59.687Z,4.55
2022-10-09T05:54:27.647Z,4.64
2022-10-09T05:56:55.518Z,4.65
2022-10-09T05:59:23.527Z,4.65
2022-10-09T06:01:53.527Z,4.61
2022-10-09T06:04:23.276Z,4.62
2022-10-09T06:06:51.667Z,4.65
2022-10-09T06:09:23.097Z,4.62
2022-10-09T06:11:52.613Z,4.48
2022-10-09T06:14:21.943Z,4.75
2022-10-09T06:16:50.472Z,4.81
2022-10-09T06:19:19.936Z,4.83
2022-10-09T06:21:49.054Z,4.91
2022-10-09T06:24:26.945Z,5.05
2022-10-09T06:26:55.923Z,5.16
2022-10-09T06:29:24.028Z,5.25
2022-10-09T06:31:52.035Z,5.34
2022-10-09T06:34:20.169Z,5.43
2022-10-09T06:36:48.086Z,5.45
2022-10-09T06:39:16.451Z,5.57
2022-10-09T06:41:45.940Z,5.59
2022-10-09T06:44:17.189Z,5.60
2022-10-09T06:46:46.614Z,5.80
2022-10-09T06:49:14.454Z,5.95
2022-10-09T06:51:42.322Z,6.01
2022-10-09T06:54:12.744Z,6.13
2022-10-09T06:56:40.923Z,6.25
2022-10-09T06:59:11.985Z,6.30
2022-10-09T07:01:39.936Z,6.77
2022-10-09T07:04:10.717Z,6.89
2022-10-09T07:06:40.968Z,7.07
2022-10-09T07:09:11.120Z,7.11
2022-10-09T07:11:40.802Z,7.50
2022-10-09T07:14:11.513Z,7.58
2022-10-09T07:16:40.793Z,7.70
2022-10-09T07:19:11.228Z,8.05
2022-10-09T07:21:40.945Z,7.93
2022-10-09T07:24:09.797Z,8.01
2022-10-09T07:26:40.051Z,8.27
2022-10-09T07:29:11.071Z,8.17
2022-10-09T07:31:38.964Z,8.32
2022-10-09T07:34:07.014Z,8.50
2022-10-09T07:36:35.310Z,8.42
2022-10-09T07:39:04.435Z,8.36
2022-10-09T07:41:32.300Z,8.25
2022-10-09T07:44:00.105Z,8.34
2022-10-09T07:46:33.675Z,8.35
2022-10-09T07:49:02.296Z,8.66
2022-10-09T07:51:31.191Z,8.65
2022-10-09T07:54:00.223Z,8.82
2022-10-09T07:56:30.381Z,8.95
2022-10-09T07:58:59.837Z,8.91
2022-10-09T08:01:30.651Z,8.99
2022-10-09T08:04:00.511Z,9.14
2022-10-09T08:06:29.248Z,9.11
2022-10-09T08:08:59.926Z,9.20
2022-10-09T08:11:29.804Z,9.32
2022-10-09T08:13:58.096Z,9.36
2022-10-09T08:16:28.431Z,9.51
2022-10-09T08:18:59.950Z,9.59
2022-10-09T08:21:29.034Z,9.64
2022-10-09T08:23:59.042Z,9.72
2022-10-09T08:26:29.200Z,9.87
2022-10-09T08:28:58.642Z,9.85
2022-10-09T08:31:28.657Z,10.00
2022-10-09T08:34:00.204Z,10.13
2022-10-09T08:36:28.628Z,10.27
2022-10-09T08:38:56.827Z,10.33
2022-10-09T08:41:40.715Z,10.34
2022-10-09T08:44:15.068Z,10.42
2022-10-09T08:46:51.243Z,10.52
2022-10-09T08:49:26.187Z,10.57
2022-10-09T08:51:57.079Z,10.61
2022-10-09T08:54:32.617Z,10.69
2022-10-09T08:57:04.114Z,10.82
2022-10-09T08:59:32.721Z,10.90
2022-10-09T09:02:09.837Z,11.00
2022-10-09T09:04:56.541Z,11.06
2022-10-09T09:07:33.009Z,11.20
2022-10-09T09:10:06.600Z,11.30
2022-10-09T09:12:47.552Z,11.51
2022-10-09T09:15:29.662Z,11.61
2022-10-09T09:18:07.484Z,11.73
2022-10-09T09:20:47.143Z,11.80
2022-10-09T09:23:17.407Z,12.01
2022-10-09T09:25:46.777Z,12.15
2022-10-09T09:28:21.997Z,12.20
2022-10-09T09:30:55.854Z,12.22
2022-10-09T09:33:35.783Z,12.29
2022-10-09T09:36:13.491Z,12.30
2022-10-09T09:39:11.022Z,12.40
2022-10-09T09:41:29.350Z,12.51
2022-10-09T09:43:57.149Z,12.50
2022-10-09T09:46:30.106Z,12.49
2022-10-09T09:48:58.037Z,12.85
2022-10-09T09:51:30.266Z,12.92
2022-10-09T09:54:00.102Z,12.93
2022-10-09T09:56:59.888Z,13.14
2022-10-09T09:59:30.889Z,13.25
2022-10-09T10:02:03.620Z,13.34
2022-10-09T10:04:31.533Z,13.45
2022-10-09T10:07:00.791Z,13.48
2022-10-09T10:09:28.598Z,13.38
2022-10-09T10:11:59.417Z,13.52
2022-10-09T10:14:28.324Z,13.68
2022-10-09T10:16:58.195Z,13.83
2022-10-09T10:19:28.151Z,13.94
2022-10-09T10:22:02.739Z,13.85
2022-10-09T10:24:35.211Z,14.11
2022-10-09T10:27:08.109Z,14.25
2022-10-09T10:29:40.370Z,14.30
2022-10-09T10:32:16.907Z,14.66
2022-10-09T10:34:48.238Z,14.67
2022-10-09T10:37:29.475Z,14.76
2022-10-09T10:40:03.122Z,15.02
2022-10-09T10:42:43.463Z,14.96
2022-10-09T10:45:17.530Z,14.98
2022-10-09T10:47:51.525Z,14.78
2022-10-09T10:50:21.640Z,14.92
2022-10-09T10:53:03.010Z,14.88
2022-10-09T10:55:43.170Z,15.02
2022-10-09T10:58:25.721Z,15.17
2022-10-09T11:01:07.613Z,15.38
2022-10-09T11:03:56.558Z,15.46
2022-10-09T11:06:35.565Z,15.48
2022-10-09T11:09:17.903Z,15.66
2022-10-09T11:11:51.120Z,15.50
2022-10-09T11:14:36.308Z,15.68
2022-10-09T11:17:17.015Z,15.76
2022-10-09T11:20:04.601Z,15.80
2022-10-09T11:22:49.181Z,15.82
2022-10-09T11:25:30.737Z,15.94
2022-10-09T11:28:03.626Z,15.79
2022-10-09T11:30:39.272Z,15.91
2022-10-09T11:33:30.287Z,16.04
2022-10-09T11:36:04.063Z,16.22
2022-10-09T11:38:37.708Z,16.29
2022-10-09T11:41:07.809Z,16.14
2022-10-09T11:43:55.649Z,16.21
2022-10-09T11:46:35.793Z,16.25
2022-10-09T11:49:13.340Z,16.31
2022-10-09T11:51:48.938Z,16.41
2022-10-09T11:54:19.516Z,16.42
2022-10-09T11:56:56.957Z,16.50
2022-10-09T11:59:29.880Z,16.39
2022-10-09T12:01:59.292Z,16.63
2022-10-09T12:04:59.532Z,16.49
2022-10-09T12:07:29.286Z,16.66
2022-10-09T12:10:03.755Z,16.81
2022-10-09T12:12:33.998Z,16.86
2022-10-09T12:15:13.088Z,16.63
2022-10-09T12:17:49.794Z,16.64
2022-10-09T12:20:21.399Z,16.58
2022-10-09T12:23:21.304Z,16.60
2022-10-09T12:25:45.943Z,16.75
2022-10-09T12:28:26.882Z,16.73
2022-10-09T12:30:56.475Z,16.66
2022-10-09T12:33:28.627Z,16.78
2022-10-09T12:36:03.637Z,16.81
2022-10-09T12:38:33.785Z,17.04
2022-10-09T12:41:04.111Z,16.85
2022-10-09T12:43:34.120Z,16.82
2022-10-09T12:46:02.490Z,16.73
2022-10-09T12:48:41.733Z,16.78
2022-10-09T12:51:17.548Z,16.84
2022-10-09T12:53:49.938Z,16.94
2022-10-09T12:56:23.638Z,17.04
2022-10-09T12:58:54.384Z,16.81
2022-10-09T13:01:23.178Z,16.54
2022-10-09T13:03:56.193Z,16.62
2022-10-09T13:06:27.165Z,16.64
2022-10-09T13:08:57.884Z,16.71
2022-10-09T13:11:33.979Z,16.68
2022-10-09T13:14:03.403Z,16.68
2022-10-09T13:16:41.135Z,16.81
2022-10-09T13:19:23.891Z,16.97
2022-10-09T13:22:18.960Z,17.04
2022-10-09T13:24:47.416Z,16.97
2022-10-09T13:27:15.602Z,17.19
2022-10-09T13:29:45.004Z,17.21
2022-10-09T13:32:14.127Z,16.91
2022-10-09T13:34:41.961Z,16.86
2022-10-09T13:37:13.938Z,16.94
2022-10-09T13:39:41.841Z,16.98
2022-10-09T13:42:12.948Z,17.00
2022-10-09T13:44:40.847Z,16.78
2022-10-09T13:47:10.954Z,16.84
2022-10-09T13:49:38.839Z,17.13
2022-10-09T13:52:07.266Z,17.08
2022-10-09T13:54:35.109Z,17.31
2022-10-09T13:57:03.185Z,17.41
2022-10-09T13:59:32.364Z,17.25
2022-10-09T14:02:00.896Z,17.21
2022-10-09T14:04:31.449Z,17.21
2022-10-09T14:06:59.303Z,17.30
2022-10-09T14:09:27.186Z,17.30
2022-10-09T14:11:55.043Z,17.23
2022-10-09T14:14:23.464Z,17.33
2022-10-09T14:16:51.780Z,17.21
2022-10-09T14:19:19.911Z,16.99
2022-10-09T14:21:49.373Z,16.92
2022-10-09T14:24:19.425Z,16.92
2022-10-09T14:26:51.465Z,16.97
2022-10-09T14:29:19.742Z,17.07
2022-10-09T14:31:50.034Z,16.86
2022-10-09T14:34:18.462Z,16.90
2022-10-09T14:36:46.367Z,16.84
2022-10-09T14:39:15.736Z,16.84
2022-10-09T14:41:43.614Z,16.96
2022-10-09T14:44:11.537Z,17.19
2022-10-09T14:46:39.756Z,17.21
2022-10-09T14:49:09.125Z,17.04
2022-10-09T14:51:38.870Z,16.91
2022-10-09T14:54:08.138Z,16.81
2022-10-09T14:56:37.463Z,16.81
2022-10-09T14:59:06.396Z,16.87
2022-10-09T15:01:35.634Z,16.86
2022-10-09T15:04:04.799Z,17.77
2022-10-09T15:06:33.141Z,21.01
2022-10-09T15:09:05.372Z,23.29
2022-10-09T15:11:34.626Z,25.15
2022-10-09T15:14:06.248Z,25.21
2022-10-09T15:16:34.735Z,26.82
2022-10-09T15:19:03.147Z,27.69
2022-10-09T15:21:32.584Z,29.76
2022-10-09T15:24:02.764Z,29.90
2022-10-09T15:26:33.436Z,30.37
2022-10-09T15:29:04.988Z,29.10
2022-10-09T15:31:34.529Z,26.64
2022-10-09T15:34:03.371Z,26.91
2022-10-09T15:36:34.275Z,27.77
2022-10-09T15:39:05.643Z,26.81
2022-10-09T15:41:35.569Z,24.73
2022-10-09T15:44:07.341Z,22.56
2022-10-09T15:46:35.611Z,21.93
2022-10-09T15:49:03.718Z,21.15
2022-10-09T15:51:33.136Z,19.42
2022-10-09T15:54:01.709Z,18.45
2022-10-09T15:56:30.254Z,17.92
2022-10-09T15:58:59.592Z,17.44
2022-10-09T16:01:28.936Z,16.88
2022-10-09T16:03:56.872Z,16.43
2022-10-09T16:06:24.943Z,16.22
2022-10-09T16:08:56.403Z,16.12
2022-10-09T16:11:26.406Z,15.79
2022-10-09T16:13:56.084Z,15.75
2022-10-09T16:16:26.126Z,15.90
2022-10-09T16:18:56.171Z,15.77
2022-10-09T16:21:26.527Z,15.65
2022-10-09T16:23:58.812Z,15.52
2022-10-09T16:26:29.874Z,15.32
2022-10-09T16:28:58.467Z,15.09
2022-10-09T16:31:28.202Z,14.99
2022-10-09T16:33:57.806Z,14.91
2022-10-09T16:36:25.867Z,14.72
2022-10-09T16:38:53.991Z,14.47
2022-10-09T16:41:27.841Z,14.32
2022-10-09T16:44:13.886Z,14.19
2022-10-09T16:46:42.749Z,13.79
2022-10-09T16:49:21.277Z,13.82
2022-10-09T16:51:52.358Z,13.68
2022-10-09T16:54:20.339Z,13.46
2022-10-09T16:56:48.591Z,13.22
2022-10-09T16:59:16.716Z,13.23
2022-10-09T17:01:46.456Z,13.12
2022-10-09T17:04:16.747Z,12.92
2022-10-09T17:06:46.559Z,12.77
2022-10-09T17:09:14.930Z,12.57
2022-10-09T17:11:43.410Z,12.28
2022-10-09T17:14:11.550Z,12.25
2022-10-09T17:16:41.065Z,12.21
2022-10-09T17:19:09.665Z,12.27
2022-10-09T17:21:39.090Z,12.02
2022-10-09T17:24:07.549Z,12.15
2022-10-09T17:26:36.569Z,11.96
2022-10-09T17:29:05.712Z,11.80
2022-10-09T17:31:34.194Z,11.64
2022-10-09T17:34:04.967Z,11.76
2022-10-09T17:36:35.818Z,11.56
2022-10-09T17:39:12.335Z,11.38
2022-10-09T17:41:40.827Z,11.07
2022-10-09T17:44:09.625Z,11.49
2022-10-09T17:46:37.604Z,11.50
2022-10-09T17:49:05.712Z,11.58
2022-10-09T17:51:36.152Z,11.41
2022-10-09T17:54:10.937Z,11.52
2022-10-09T17:56:41.128Z,11.42
2022-10-09T17:59:09.790Z,11.23
2022-10-09T18:01:38.603Z,11.05
2022-10-09T18:04:06.618Z,10.95
2022-10-09T18:06:35.842Z,10.86
2022-10-09T18:09:05.883Z,10.63
2022-10-09T18:11:33.877Z,10.73
2022-10-09T18:14:01.888Z,10.48
2022-10-09T18:16:35.895Z,10.48
2022-10-09T18:19:06.261Z,10.32
2022-10-09T18:21:35.227Z,10.03
2022-10-09T18:24:03.556Z,10.31
2022-10-09T18:26:33.044Z,10.20
2022-10-09T18:29:01.564Z,10.03
2022-10-09T18:31:30.217Z,10.07
2022-10-09T18:33:59.729Z,9.97
2022-10-09T18:36:31.905Z,9.97
2022-10-09T18:39:02.426Z,9.80
2022-10-09T18:41:32.203Z,9.93
2022-10-09T18:44:02.927Z,9.91
2022-10-09T18:46:36.995Z,9.90
2022-10-09T18:49:09.637Z,9.85
2022-10-09T18:51:40.366Z,9.98
2022-10-09T18:54:13.244Z,9.78
2022-10-09T18:56:45.918Z,9.87
2022-10-09T18:59:17.727Z,9.84
2022-10-09T19:01:50.077Z,9.80
2022-10-09T19:04:19.358Z,9.23
2022-10-09T19:06:48.883Z,9.30
2022-10-09T19:09:23.661Z,9.42
2022-10-09T19:11:55.035Z,9.63
2022-10-09T19:14:25.802Z,9.50
2022-10-09T19:16:54.907Z,9.40
2022-10-09T19:19:22.781Z,9.19
2022-10-09T19:21:51.100Z,9.34
2022-10-09T19:24:20.244Z,9.30
2022-10-09T19:26:51.901Z,9.23
2022-10-09T19:29:32.412Z,9.07
2022-10-09T19:32:01.380Z,8.97
2022-10-09T19:34:30.911Z,9.11
2022-10-09T19:36:59.308Z,9.11
2022-10-09T19:39:27.897Z,9.01
2022-10-09T19:41:56.100Z,8.99
2022-10-09T19:44:25.705Z,8.93
2022-10-09T19:46:54.032Z,8.91
2022-10-09T19:49:22.912Z,8.78
2022-10-09T19:51:51.413Z,8.78
2022-10-09T19:54:20.811Z,8.81
2022-10-09T19:56:48.744Z,8.74
2022-10-09T19:59:16.792Z,8.69
2022-10-09T20:01:48.596Z,8.63
2022-10-09T20:04:16.498Z,8.54
2022-10-09T20:06:44.752Z,8.62
2022-10-09T20:09:14.856Z,8.49
2022-10-09T20:11:43.598Z,8.43
2022-10-09T20:14:13.461Z,8.46
2022-10-09T20:16:41.372Z,8.41
2022-10-09T20:19:11.316Z,8.36
2022-10-09T20:21:39.807Z,8.38
2022-10-09T20:24:08.684Z,8.38
2022-10-09T20:26:39.780Z,8.33
2022-10-09T20:29:10.841Z,8.31
2022-10-09T20:31:38.746Z,8.34
2022-10-09T20:34:06.656Z,8.26
2022-10-09T20:36:39.008Z,8.33
2022-10-09T20:39:09.267Z,8.38
2022-10-09T20:41:37.612Z,8.48
2022-10-09T20:44:07.290Z,8.51
2022-10-09T20:46:37.829Z,8.46
2022-10-09T20:49:07.769Z,8.58
2022-10-09T20:51:37.779Z,8.58
2022-10-09T20:54:07.421Z,8.52
2022-10-09T20:56:35.626Z,8.39
2022-10-09T20:59:04.633Z,8.33
2022-10-09T21:01:32.836Z,8.21
2022-10-09T21:04:03.006Z,8.17
2022-10-09T21:06:36.902Z,8.12
2022-10-09T21:09:06.950Z,8.08
2022-10-09T21:11:36.530Z,8.09
2022-10-09T21:14:04.801Z,8.03
2022-10-09T21:16:32.800Z,7.99
2022-10-09T21:19:02.430Z,8.07
2022-10-09T21:21:31.499Z,8.01
2022-10-09T21:24:00.535Z,8.04
2022-10-09T21:26:31.371Z,8.03
2022-10-09T21:29:00.204Z,8.03
2022-10-09T21:31:30.678Z,7.92
2022-10-09T21:34:00.170Z,7.92
2022-10-09T21:36:35.358Z,7.89
2022-10-09T21:39:04.098Z,7.92
2022-10-09T21:41:33.952Z,7.93
2022-10-09T21:44:02.432Z,7.90
2022-10-09T21:46:30.881Z,7.87
2022-10-09T21:48:59.430Z,7.84
2022-10-09T21:51:27.850Z,7.85
2022-10-09T21:53:55.881Z,7.81
2022-10-09T21:56:24.268Z,7.74
2022-10-09T21:58:53.695Z,7.64
2022-10-09T22:01:21.507Z,7.59
2022-10-09T22:03:49.390Z,7.61
2022-10-09T22:06:19.108Z,7.57
2022-10-09T22:08:47.852Z,7.54
2022-10-09T22:11:16.446Z,7.51
2022-10-09T22:13:44.756Z,7.53
2022-10-09T22:16:16.503Z,7.65
2022-10-09T22:18:44.893Z,7.54
2022-10-09T22:21:14.953Z,7.54
2022-10-09T22:23:43.579Z,7.61
2022-10-09T22:26:14.485Z,7.55
2022-10-09T22:28:42.572Z,7.59
2022-10-09T22:31:14.714Z,7.59
2022-10-09T22:33:43.473Z,7.64
2022-10-09T22:36:13.578Z,7.60
2022-10-09T22:38:42.593Z,7.58
2022-10-09T22:41:12.561Z,7.49
2022-10-09T22:43:41.878Z,7.51
2022-10-09T22:46:12.178Z,7.43
2022-10-09T22:48:42.740Z,7.42
2022-10-09T22:51:13.430Z,7.45
2022-10-09T22:53:41.845Z,7.37
2022-10-09T22:56:12.791Z,7.28
2022-10-09T22:58:41.905Z,7.33
2022-10-09T23:01:12.347Z,7.29
2022-10-09T23:03:42.329Z,7.43
2022-10-09T23:06:12.425Z,7.35
2022-10-09T23:08:42.478Z,7.39
2022-10-09T23:11:12.763Z,7.21
2022-10-09T23:13:41.382Z,7.26
2022-10-09T23:16:11.540Z,7.24
2022-10-09T23:18:42.277Z,7.36
2022-10-09T23:21:13.620Z,7.25
2022-10-09T23:23:42.227Z,7.27
2022-10-09T23:26:12.774Z,7.18
2022-10-09T23:28:41.803Z,7.01
2022-10-09T23:31:12.410Z,7.07
2022-10-09T23:33:43.548Z,7.01
2022-10-09T23:36:14.367Z,7.27
2022-10-09T23:38:42.487Z,7.29
2022-10-09T23:41:13.624Z,7.25
2022-10-09T23:43:42.469Z,7.39
2022-10-09T23:46:13.765Z,7.18
2022-10-09T23:48:43.383Z,7.23
2022-10-09T23:51:11.922Z,7.22
2022-10-09T23:53:39.720Z,7.16
2022-10-09T23:56:15.531Z,7.16
2022-10-09T23:58:43.318Z,7.18
